sensor_id;sensor_type;location;lat;lon;timestamp;temperature;humidity
2907;DHT22;1463;51.070;16.998;2023-08-01T00:00:09;20.80;99.90
2907;DHT22;1463;51.070;16.998;2023-08-01T00:02:38;20.80;99.90
2907;DHT22;1463;51.070;16.998;2023-08-01T00:05:08;20.80;99.90
2907;DHT22;1463;51.070;16.998;2023-08-01T00:07:36;20.70;99.90
2907;DHT22;1463;51.070;16.998;2023-08-01T00:10:04;20.70;99.90
2907;DHT22;1463;51.070;16.998;2023-08-01T00:12:32;20.70;99.90
2907;DHT22;1463;51.070;16.998;2023-08-01T00:15:01;20.70;99.90
2907;DHT22;1463;51.070;16.998;2023-08-01T00:17:31;20.80;99.90
2907;DHT22;1463;51.070;16.998;2023-08-01T00:20:00;20.70;99.90
2907;DHT22;1463;51.070;16.998;2023-08-01T00:22:27;20.70;99.90
2907;DHT22;1463;51.070;16.998;2023-08-01T00:24:55;20.70;99.90
2907;DHT22;1463;51.070;16.998;2023-08-01T00:27:23;20.70;99.90
2907;DHT22;1463;51.070;16.998;2023-08-01T00:29:51;20.70;99.90
2907;DHT22;1463;51.070;16.998;2023-08-01T00:32:20;20.70;99.90
2907;DHT22;1463;51.070;16.998;2023-08-01T00:34:50;20.60;99.90
2907;DHT22;1463;51.070;16.998;2023-08-01T00:37:18;20.60;99.90
2907;DHT22;1463;51.070;16.998;2023-08-01T00:39:45;20.60;99.90
2907;DHT22;1463;51.070;16.998;2023-08-01T00:42:13;20.70;99.90
2907;DHT22;1463;51.070;16.998;2023-08-01T00:44:40;20.60;99.90
2907;DHT22;1463;51.070;16.998;2023-08-01T00:47:09;20.60;99.90
2907;DHT22;1463;51.070;16.998;2023-08-01T00:49:38;20.60;99.90
2907;DHT22;1463;51.070;16.998;2023-08-01T00:52:06;20.60;99.90
2907;DHT22;1463;51.070;16.998;2023-08-01T00:54:34;20.60;99.90
2907;DHT22;1463;51.070;16.998;2023-08-01T00:57:03;20.60;99.90
2907;DHT22;1463;51.070;16.998;2023-08-01T00:59:30;20.60;99.90
2907;DHT22;1463;51.070;16.998;2023-08-01T01:01:59;20.60;99.90
2907;DHT22;1463;51.070;16.998;2023-08-01T01:04:27;20.60;99.90
2907;DHT22;1463;51.070;16.998;2023-08-01T01:07:00;20.60;99.90
2907;DHT22;1463;51.070;16.998;2023-08-01T01:09:30;20.60;99.90
2907;DHT22;1463;51.070;16.998;2023-08-01T01:11:58;20.60;99.90
2907;DHT22;1463;51.070;16.998;2023-08-01T01:14:26;20.50;99.90
2907;DHT22;1463;51.070;16.998;2023-08-01T01:16:54;20.50;99.90
2907;DHT22;1463;51.070;16.998;2023-08-01T01:19:21;20.50;99.90
2907;DHT22;1463;51.070;16.998;2023-08-01T01:21:51;20.60;99.90
2907;DHT22;1463;51.070;16.998;2023-08-01T01:24:19;20.50;99.90
2907;DHT22;1463;51.070;16.998;2023-08-01T01:26:48;20.50;99.90
2907;DHT22;1463;51.070;16.998;2023-08-01T01:29:16;20.40;99.90
2907;DHT22;1463;51.070;16.998;2023-08-01T01:31:44;20.40;99.90
2907;DHT22;1463;51.070;16.998;2023-08-01T01:34:12;20.40;99.90
2907;DHT22;1463;51.070;16.998;2023-08-01T01:36:42;20.40;99.90
2907;DHT22;1463;51.070;16.998;2023-08-01T01:39:11;20.40;99.90
2907;DHT22;1463;51.070;16.998;2023-08-01T01:41:40;20.40;99.90
2907;DHT22;1463;51.070;16.998;2023-08-01T01:46:56;20.30;99.90
2907;DHT22;1463;51.070;16.998;2023-08-01T01:49:23;20.30;99.90
2907;DHT22;1463;51.070;16.998;2023-08-01T01:51:52;20.30;99.90
2907;DHT22;1463;51.070;16.998;2023-08-01T01:54:21;20.30;99.90
2907;DHT22;1463;51.070;16.998;2023-08-01T01:56:48;20.20;99.90
2907;DHT22;1463;51.070;16.998;2023-08-01T01:59:16;20.20;99.90
2907;DHT22;1463;51.070;16.998;2023-08-01T02:01:43;20.20;99.90
2907;DHT22;1463;51.070;16.998;2023-08-01T02:04:11;20.20;99.90
2907;DHT22;1463;51.070;16.998;2023-08-01T02:06:39;20.20;99.90
2907;DHT22;1463;51.070;16.998;2023-08-01T02:09:09;20.20;99.90
2907;DHT22;1463;51.070;16.998;2023-08-01T02:11:38;20.20;99.90
2907;DHT22;1463;51.070;16.998;2023-08-01T02:14:05;20.20;99.90
2907;DHT22;1463;51.070;16.998;2023-08-01T02:16:33;20.10;99.90
2907;DHT22;1463;51.070;16.998;2023-08-01T02:19:00;20.10;99.90
2907;DHT22;1463;51.070;16.998;2023-08-01T02:21:28;20.10;99.90
2907;DHT22;1463;51.070;16.998;2023-08-01T02:23:55;20.10;99.90
2907;DHT22;1463;51.070;16.998;2023-08-01T02:26:23;20.10;99.90
2907;DHT22;1463;51.070;16.998;2023-08-01T02:28:52;20.10;99.90
2907;DHT22;1463;51.070;16.998;2023-08-01T02:31:19;20.10;99.90
2907;DHT22;1463;51.070;16.998;2023-08-01T02:33:47;20.00;99.90
2907;DHT22;1463;51.070;16.998;2023-08-01T02:36:14;20.00;99.90
2907;DHT22;1463;51.070;16.998;2023-08-01T02:38:42;20.00;99.90
2907;DHT22;1463;51.070;16.998;2023-08-01T02:41:09;20.00;99.90
2907;DHT22;1463;51.070;16.998;2023-08-01T02:43:37;20.00;99.90
2907;DHT22;1463;51.070;16.998;2023-08-01T02:46:08;20.00;99.90
2907;DHT22;1463;51.070;16.998;2023-08-01T02:48:36;19.90;99.90
2907;DHT22;1463;51.070;16.998;2023-08-01T02:51:03;19.90;99.90
2907;DHT22;1463;51.070;16.998;2023-08-01T02:53:32;19.90;99.90
2907;DHT22;1463;51.070;16.998;2023-08-01T02:55:59;19.80;99.90
2907;DHT22;1463;51.070;16.998;2023-08-01T02:58:27;19.80;99.90
2907;DHT22;1463;51.070;16.998;2023-08-01T03:00:54;19.80;99.90
2907;DHT22;1463;51.070;16.998;2023-08-01T03:03:23;19.80;99.90
2907;DHT22;1463;51.070;16.998;2023-08-01T03:05:52;19.80;99.90
2907;DHT22;1463;51.070;16.998;2023-08-01T03:08:19;19.80;99.90
2907;DHT22;1463;51.070;16.998;2023-08-01T03:10:48;19.80;99.90
2907;DHT22;1463;51.070;16.998;2023-08-01T03:13:16;19.80;99.90
2907;DHT22;1463;51.070;16.998;2023-08-01T03:15:44;19.80;99.90
2907;DHT22;1463;51.070;16.998;2023-08-01T03:18:11;19.80;99.90
2907;DHT22;1463;51.070;16.998;2023-08-01T03:20:40;19.80;99.90
2907;DHT22;1463;51.070;16.998;2023-08-01T03:23:12;19.70;99.90
2907;DHT22;1463;51.070;16.998;2023-08-01T03:25:40;19.80;99.90
2907;DHT22;1463;51.070;16.998;2023-08-01T03:28:10;19.80;99.90
2907;DHT22;1463;51.070;16.998;2023-08-01T03:30:38;19.80;99.90
2907;DHT22;1463;51.070;16.998;2023-08-01T03:33:06;19.80;99.90
2907;DHT22;1463;51.070;16.998;2023-08-01T03:35:33;19.80;99.90
2907;DHT22;1463;51.070;16.998;2023-08-01T03:38:02;19.80;99.90
2907;DHT22;1463;51.070;16.998;2023-08-01T03:40:30;19.80;99.90
2907;DHT22;1463;51.070;16.998;2023-08-01T03:42:58;19.80;99.90
2907;DHT22;1463;51.070;16.998;2023-08-01T03:45:26;19.90;99.90
2907;DHT22;1463;51.070;16.998;2023-08-01T03:47:53;19.90;99.90
2907;DHT22;1463;51.070;16.998;2023-08-01T03:50:21;19.90;99.90
2907;DHT22;1463;51.070;16.998;2023-08-01T03:52:50;19.90;99.90
2907;DHT22;1463;51.070;16.998;2023-08-01T03:55:23;19.90;99.90
2907;DHT22;1463;51.070;16.998;2023-08-01T03:57:50;19.90;99.90
2907;DHT22;1463;51.070;16.998;2023-08-01T04:00:18;19.90;99.90
2907;DHT22;1463;51.070;16.998;2023-08-01T04:02:45;19.90;99.90
2907;DHT22;1463;51.070;16.998;2023-08-01T04:05:15;19.90;99.90
2907;DHT22;1463;51.070;16.998;2023-08-01T04:07:43;19.90;99.90
2907;DHT22;1463;51.070;16.998;2023-08-01T04:10:13;19.90;99.90
2907;DHT22;1463;51.070;16.998;2023-08-01T04:12:42;19.80;99.90
2907;DHT22;1463;51.070;16.998;2023-08-01T04:15:10;19.90;99.90
2907;DHT22;1463;51.070;16.998;2023-08-01T04:17:38;19.90;99.90
2907;DHT22;1463;51.070;16.998;2023-08-01T04:20:09;19.90;99.90
2907;DHT22;1463;51.070;16.998;2023-08-01T04:22:37;19.90;99.90
2907;DHT22;1463;51.070;16.998;2023-08-01T04:25:05;19.90;99.90
2907;DHT22;1463;51.070;16.998;2023-08-01T04:27:33;19.80;99.90
2907;DHT22;1463;51.070;16.998;2023-08-01T04:30:02;19.90;99.90
2907;DHT22;1463;51.070;16.998;2023-08-01T04:32:30;19.80;99.90
2907;DHT22;1463;51.070;16.998;2023-08-01T04:34:58;19.70;99.90
2907;DHT22;1463;51.070;16.998;2023-08-01T04:37:25;19.70;99.90
2907;DHT22;1463;51.070;16.998;2023-08-01T04:39:53;19.70;99.90
2907;DHT22;1463;51.070;16.998;2023-08-01T04:42:21;19.70;99.90
2907;DHT22;1463;51.070;16.998;2023-08-01T04:44:48;19.70;99.90
2907;DHT22;1463;51.070;16.998;2023-08-01T04:47:18;19.70;99.90
2907;DHT22;1463;51.070;16.998;2023-08-01T04:49:46;19.80;99.90
2907;DHT22;1463;51.070;16.998;2023-08-01T04:52:13;19.80;99.90
2907;DHT22;1463;51.070;16.998;2023-08-01T04:54:41;19.80;99.90
2907;DHT22;1463;51.070;16.998;2023-08-01T04:57:09;19.80;99.90
2907;DHT22;1463;51.070;16.998;2023-08-01T04:59:39;19.60;99.90
2907;DHT22;1463;51.070;16.998;2023-08-01T05:02:06;19.50;99.90
2907;DHT22;1463;51.070;16.998;2023-08-01T05:04:35;19.50;99.90
2907;DHT22;1463;51.070;16.998;2023-08-01T05:07:06;19.50;99.90
2907;DHT22;1463;51.070;16.998;2023-08-01T05:09:33;19.50;99.90
2907;DHT22;1463;51.070;16.998;2023-08-01T05:12:01;19.40;99.90
2907;DHT22;1463;51.070;16.998;2023-08-01T05:14:28;19.50;99.90
2907;DHT22;1463;51.070;16.998;2023-08-01T05:16:56;19.50;99.90
2907;DHT22;1463;51.070;16.998;2023-08-01T05:19:23;19.40;99.90
2907;DHT22;1463;51.070;16.998;2023-08-01T05:21:53;19.50;99.90
2907;DHT22;1463;51.070;16.998;2023-08-01T05:24:21;19.40;99.90
2907;DHT22;1463;51.070;16.998;2023-08-01T05:26:51;19.40;99.90
2907;DHT22;1463;51.070;16.998;2023-08-01T05:29:19;19.30;99.90
2907;DHT22;1463;51.070;16.998;2023-08-01T05:31:50;19.40;99.90
2907;DHT22;1463;51.070;16.998;2023-08-01T05:34:20;19.40;99.90
2907;DHT22;1463;51.070;16.998;2023-08-01T05:36:48;19.40;99.90
2907;DHT22;1463;51.070;16.998;2023-08-01T05:39:18;19.40;99.90
2907;DHT22;1463;51.070;16.998;2023-08-01T05:41:48;19.40;99.90
2907;DHT22;1463;51.070;16.998;2023-08-01T05:44:18;19.30;99.90
2907;DHT22;1463;51.070;16.998;2023-08-01T05:46:48;19.30;99.90
2907;DHT22;1463;51.070;16.998;2023-08-01T05:49:15;19.30;99.90
2907;DHT22;1463;51.070;16.998;2023-08-01T05:51:43;19.30;99.90
2907;DHT22;1463;51.070;16.998;2023-08-01T05:54:12;19.40;99.90
2907;DHT22;1463;51.070;16.998;2023-08-01T05:56:41;19.40;99.90
2907;DHT22;1463;51.070;16.998;2023-08-01T05:59:17;19.40;99.90
2907;DHT22;1463;51.070;16.998;2023-08-01T06:01:46;19.30;99.90
2907;DHT22;1463;51.070;16.998;2023-08-01T06:04:14;19.30;99.90
2907;DHT22;1463;51.070;16.998;2023-08-01T06:06:43;19.30;99.90
2907;DHT22;1463;51.070;16.998;2023-08-01T06:09:10;19.40;99.90
2907;DHT22;1463;51.070;16.998;2023-08-01T06:11:38;19.40;99.90
2907;DHT22;1463;51.070;16.998;2023-08-01T06:14:09;19.40;99.90
2907;DHT22;1463;51.070;16.998;2023-08-01T06:16:36;19.40;99.90
2907;DHT22;1463;51.070;16.998;2023-08-01T06:19:07;19.50;99.90
2907;DHT22;1463;51.070;16.998;2023-08-01T06:21:35;19.40;99.90
2907;DHT22;1463;51.070;16.998;2023-08-01T06:24:04;19.50;99.90
2907;DHT22;1463;51.070;16.998;2023-08-01T06:26:34;19.40;99.90
2907;DHT22;1463;51.070;16.998;2023-08-01T06:29:02;19.50;99.90
2907;DHT22;1463;51.070;16.998;2023-08-01T06:31:32;19.40;99.90
2907;DHT22;1463;51.070;16.998;2023-08-01T06:34:02;19.40;99.90
2907;DHT22;1463;51.070;16.998;2023-08-01T06:36:30;19.50;99.90
2907;DHT22;1463;51.070;16.998;2023-08-01T06:38:59;19.40;99.90
2907;DHT22;1463;51.070;16.998;2023-08-01T06:41:27;19.40;99.90
2907;DHT22;1463;51.070;16.998;2023-08-01T06:43:55;19.30;99.90
2907;DHT22;1463;51.070;16.998;2023-08-01T06:46:27;19.40;99.90
2907;DHT22;1463;51.070;16.998;2023-08-01T06:48:59;19.40;99.90
2907;DHT22;1463;51.070;16.998;2023-08-01T06:51:28;19.40;99.90
2907;DHT22;1463;51.070;16.998;2023-08-01T06:53:55;19.50;99.90
2907;DHT22;1463;51.070;16.998;2023-08-01T06:56:23;19.50;99.90
2907;DHT22;1463;51.070;16.998;2023-08-01T06:58:52;19.40;99.90
2907;DHT22;1463;51.070;16.998;2023-08-01T07:01:20;19.50;99.90
2907;DHT22;1463;51.070;16.998;2023-08-01T07:03:49;19.40;99.90
2907;DHT22;1463;51.070;16.998;2023-08-01T07:06:24;19.40;99.90
2907;DHT22;1463;51.070;16.998;2023-08-01T07:09:02;19.50;99.90
2907;DHT22;1463;51.070;16.998;2023-08-01T07:12:24;19.50;99.90
2907;DHT22;1463;51.070;16.998;2023-08-01T07:14:53;19.50;99.90
2907;DHT22;1463;51.070;16.998;2023-08-01T07:17:21;19.50;99.90
2907;DHT22;1463;51.070;16.998;2023-08-01T07:19:49;19.50;99.90
2907;DHT22;1463;51.070;16.998;2023-08-01T07:22:20;19.50;99.90
2907;DHT22;1463;51.070;16.998;2023-08-01T07:24:52;19.50;99.90
2907;DHT22;1463;51.070;16.998;2023-08-01T07:27:21;19.50;99.90
2907;DHT22;1463;51.070;16.998;2023-08-01T07:29:49;19.60;99.90
2907;DHT22;1463;51.070;16.998;2023-08-01T07:32:20;19.50;99.90
2907;DHT22;1463;51.070;16.998;2023-08-01T07:34:47;19.50;99.90
2907;DHT22;1463;51.070;16.998;2023-08-01T07:37:15;19.50;99.90
2907;DHT22;1463;51.070;16.998;2023-08-01T07:39:44;19.50;99.90
2907;DHT22;1463;51.070;16.998;2023-08-01T07:42:11;19.60;99.90
2907;DHT22;1463;51.070;16.998;2023-08-01T07:44:39;19.60;99.90
2907;DHT22;1463;51.070;16.998;2023-08-01T07:47:06;19.70;99.90
2907;DHT22;1463;51.070;16.998;2023-08-01T07:49:34;19.70;99.90
2907;DHT22;1463;51.070;16.998;2023-08-01T07:52:02;19.70;99.90
2907;DHT22;1463;51.070;16.998;2023-08-01T07:54:30;19.70;99.90
2907;DHT22;1463;51.070;16.998;2023-08-01T07:56:59;19.70;99.90
2907;DHT22;1463;51.070;16.998;2023-08-01T07:59:28;19.60;99.90
2907;DHT22;1463;51.070;16.998;2023-08-01T08:01:56;19.70;99.90
2907;DHT22;1463;51.070;16.998;2023-08-01T08:04:23;19.70;99.90
2907;DHT22;1463;51.070;16.998;2023-08-01T08:06:51;19.70;99.90
2907;DHT22;1463;51.070;16.998;2023-08-01T08:09:20;19.70;99.90
2907;DHT22;1463;51.070;16.998;2023-08-01T08:11:49;19.70;99.90
2907;DHT22;1463;51.070;16.998;2023-08-01T08:14:19;19.70;99.90
2907;DHT22;1463;51.070;16.998;2023-08-01T08:16:49;19.70;99.90
2907;DHT22;1463;51.070;16.998;2023-08-01T08:19:19;19.70;99.90
2907;DHT22;1463;51.070;16.998;2023-08-01T08:21:46;19.80;99.90
2907;DHT22;1463;51.070;16.998;2023-08-01T08:24:18;19.70;99.90
2907;DHT22;1463;51.070;16.998;2023-08-01T08:26:46;19.80;99.90
2907;DHT22;1463;51.070;16.998;2023-08-01T08:29:13;19.80;99.90
2907;DHT22;1463;51.070;16.998;2023-08-01T08:31:42;19.80;99.90
2907;DHT22;1463;51.070;16.998;2023-08-01T08:34:10;19.80;99.90
2907;DHT22;1463;51.070;16.998;2023-08-01T08:36:37;19.80;99.90
2907;DHT22;1463;51.070;16.998;2023-08-01T08:39:05;19.70;99.90
2907;DHT22;1463;51.070;16.998;2023-08-01T08:41:37;19.80;99.90
2907;DHT22;1463;51.070;16.998;2023-08-01T08:44:07;19.80;99.90
2907;DHT22;1463;51.070;16.998;2023-08-01T08:46:40;19.70;99.90
2907;DHT22;1463;51.070;16.998;2023-08-01T08:49:10;19.80;99.90
2907;DHT22;1463;51.070;16.998;2023-08-01T08:51:42;19.80;99.90
2907;DHT22;1463;51.070;16.998;2023-08-01T08:54:11;19.70;99.90
2907;DHT22;1463;51.070;16.998;2023-08-01T08:56:38;19.70;99.90
2907;DHT22;1463;51.070;16.998;2023-08-01T08:59:07;19.70;99.90
2907;DHT22;1463;51.070;16.998;2023-08-01T09:01:36;19.70;99.90
2907;DHT22;1463;51.070;16.998;2023-08-01T09:04:04;19.80;99.90
2907;DHT22;1463;51.070;16.998;2023-08-01T09:06:37;19.70;99.90
2907;DHT22;1463;51.070;16.998;2023-08-01T09:09:10;19.70;99.90
2907;DHT22;1463;51.070;16.998;2023-08-01T09:11:46;19.80;99.90
2907;DHT22;1463;51.070;16.998;2023-08-01T09:14:18;19.80;99.90
2907;DHT22;1463;51.070;16.998;2023-08-01T09:16:46;19.80;99.90
2907;DHT22;1463;51.070;16.998;2023-08-01T09:19:17;19.80;99.90
2907;DHT22;1463;51.070;16.998;2023-08-01T09:21:47;19.70;99.90
2907;DHT22;1463;51.070;16.998;2023-08-01T09:24:15;19.80;99.90
2907;DHT22;1463;51.070;16.998;2023-08-01T09:26:44;19.80;99.90
2907;DHT22;1463;51.070;16.998;2023-08-01T09:29:12;19.80;99.90
2907;DHT22;1463;51.070;16.998;2023-08-01T09:31:41;19.80;99.90
2907;DHT22;1463;51.070;16.998;2023-08-01T09:34:19;19.80;99.90
2907;DHT22;1463;51.070;16.998;2023-08-01T09:36:48;19.80;99.90
2907;DHT22;1463;51.070;16.998;2023-08-01T09:39:17;19.80;99.90
2907;DHT22;1463;51.070;16.998;2023-08-01T09:41:54;19.80;99.90
2907;DHT22;1463;51.070;16.998;2023-08-01T09:44:22;19.80;99.90
2907;DHT22;1463;51.070;16.998;2023-08-01T09:46:56;19.90;99.90
2907;DHT22;1463;51.070;16.998;2023-08-01T09:49:24;19.90;99.90
2907;DHT22;1463;51.070;16.998;2023-08-01T09:51:53;19.80;99.90
2907;DHT22;1463;51.070;16.998;2023-08-01T09:54:21;19.90;99.90
2907;DHT22;1463;51.070;16.998;2023-08-01T09:56:50;19.90;99.90
2907;DHT22;1463;51.070;16.998;2023-08-01T09:59:19;19.90;99.90
2907;DHT22;1463;51.070;16.998;2023-08-01T10:01:51;19.90;99.90
2907;DHT22;1463;51.070;16.998;2023-08-01T10:04:21;19.90;99.90
2907;DHT22;1463;51.070;16.998;2023-08-01T10:06:57;20.00;99.90
2907;DHT22;1463;51.070;16.998;2023-08-01T10:09:25;20.00;99.90
2907;DHT22;1463;51.070;16.998;2023-08-01T10:11:54;20.00;99.90
2907;DHT22;1463;51.070;16.998;2023-08-01T10:14:22;20.00;99.90
2907;DHT22;1463;51.070;16.998;2023-08-01T10:16:52;20.10;99.90
2907;DHT22;1463;51.070;16.998;2023-08-01T10:19:20;20.10;99.90
2907;DHT22;1463;51.070;16.998;2023-08-01T10:21:49;20.10;99.90
2907;DHT22;1463;51.070;16.998;2023-08-01T10:24:24;20.10;99.90
2907;DHT22;1463;51.070;16.998;2023-08-01T10:26:53;20.10;99.90
2907;DHT22;1463;51.070;16.998;2023-08-01T10:29:20;20.20;99.90
2907;DHT22;1463;51.070;16.998;2023-08-01T10:31:51;20.10;99.90
2907;DHT22;1463;51.070;16.998;2023-08-01T10:34:22;20.10;99.90
2907;DHT22;1463;51.070;16.998;2023-08-01T10:36:56;20.20;99.90
2907;DHT22;1463;51.070;16.998;2023-08-01T10:39:26;20.20;99.90
2907;DHT22;1463;51.070;16.998;2023-08-01T10:41:58;20.20;99.90
2907;DHT22;1463;51.070;16.998;2023-08-01T10:44:26;20.20;99.90
2907;DHT22;1463;51.070;16.998;2023-08-01T10:46:55;20.20;99.90
2907;DHT22;1463;51.070;16.998;2023-08-01T10:49:34;20.30;99.90
2907;DHT22;1463;51.070;16.998;2023-08-01T10:52:02;20.20;99.90
2907;DHT22;1463;51.070;16.998;2023-08-01T10:54:31;20.20;99.90
2907;DHT22;1463;51.070;16.998;2023-08-01T10:57:04;20.20;99.90
2907;DHT22;1463;51.070;16.998;2023-08-01T10:59:33;20.20;99.90
2907;DHT22;1463;51.070;16.998;2023-08-01T11:02:01;20.20;99.90
2907;DHT22;1463;51.070;16.998;2023-08-01T11:04:29;20.30;99.90
2907;DHT22;1463;51.070;16.998;2023-08-01T11:06:56;20.30;99.90
2907;DHT22;1463;51.070;16.998;2023-08-01T11:09:25;20.20;99.90
2907;DHT22;1463;51.070;16.998;2023-08-01T11:11:55;20.20;99.90
2907;DHT22;1463;51.070;16.998;2023-08-01T11:14:25;20.20;99.90
2907;DHT22;1463;51.070;16.998;2023-08-01T11:16:55;20.20;99.90
2907;DHT22;1463;51.070;16.998;2023-08-01T11:19:24;20.20;99.90
2907;DHT22;1463;51.070;16.998;2023-08-01T11:21:53;20.30;99.90
2907;DHT22;1463;51.070;16.998;2023-08-01T11:24:22;20.30;99.90
2907;DHT22;1463;51.070;16.998;2023-08-01T11:26:52;20.30;99.90
2907;DHT22;1463;51.070;16.998;2023-08-01T11:29:21;20.30;99.90
2907;DHT22;1463;51.070;16.998;2023-08-01T11:31:53;20.30;99.90
2907;DHT22;1463;51.070;16.998;2023-08-01T11:34:23;20.40;99.90
2907;DHT22;1463;51.070;16.998;2023-08-01T11:36:50;20.50;99.90
2907;DHT22;1463;51.070;16.998;2023-08-01T11:39:18;20.40;99.90
2907;DHT22;1463;51.070;16.998;2023-08-01T11:41:48;20.50;99.90
2907;DHT22;1463;51.070;16.998;2023-08-01T11:44:15;20.60;99.90
2907;DHT22;1463;51.070;16.998;2023-08-01T11:46:44;20.50;99.90
2907;DHT22;1463;51.070;16.998;2023-08-01T11:49:14;20.50;99.90
2907;DHT22;1463;51.070;16.998;2023-08-01T11:51:43;20.50;99.90
2907;DHT22;1463;51.070;16.998;2023-08-01T11:54:13;20.50;99.90
2907;DHT22;1463;51.070;16.998;2023-08-01T11:56:42;20.50;99.90
2907;DHT22;1463;51.070;16.998;2023-08-01T11:59:09;20.50;99.90
2907;DHT22;1463;51.070;16.998;2023-08-01T12:01:41;20.60;99.90
2907;DHT22;1463;51.070;16.998;2023-08-01T12:04:10;20.60;99.90
2907;DHT22;1463;51.070;16.998;2023-08-01T12:06:38;20.70;99.90
2907;DHT22;1463;51.070;16.998;2023-08-01T12:09:09;20.80;99.90
2907;DHT22;1463;51.070;16.998;2023-08-01T12:11:37;20.90;99.90
2907;DHT22;1463;51.070;16.998;2023-08-01T12:14:06;21.00;99.90
2907;DHT22;1463;51.070;16.998;2023-08-01T12:16:35;21.00;99.90
2907;DHT22;1463;51.070;16.998;2023-08-01T12:19:05;21.00;99.90
2907;DHT22;1463;51.070;16.998;2023-08-01T12:21:34;21.20;99.90
2907;DHT22;1463;51.070;16.998;2023-08-01T12:24:02;21.10;99.90
2907;DHT22;1463;51.070;16.998;2023-08-01T12:26:30;21.20;99.90
2907;DHT22;1463;51.070;16.998;2023-08-01T12:28:57;21.20;99.90
2907;DHT22;1463;51.070;16.998;2023-08-01T12:31:25;21.30;99.90
2907;DHT22;1463;51.070;16.998;2023-08-01T12:33:53;21.30;99.90
2907;DHT22;1463;51.070;16.998;2023-08-01T12:36:20;21.30;99.90
2907;DHT22;1463;51.070;16.998;2023-08-01T12:38:53;21.40;99.90
2907;DHT22;1463;51.070;16.998;2023-08-01T12:41:20;21.50;99.90
2907;DHT22;1463;51.070;16.998;2023-08-01T12:43:48;21.60;99.90
2907;DHT22;1463;51.070;16.998;2023-08-01T12:46:15;21.60;99.90
2907;DHT22;1463;51.070;16.998;2023-08-01T12:48:43;21.60;99.90
2907;DHT22;1463;51.070;16.998;2023-08-01T12:51:13;21.60;99.90
2907;DHT22;1463;51.070;16.998;2023-08-01T12:53:41;21.60;99.90
2907;DHT22;1463;51.070;16.998;2023-08-01T12:56:10;21.70;99.90
2907;DHT22;1463;51.070;16.998;2023-08-01T12:58:38;21.70;99.90
2907;DHT22;1463;51.070;16.998;2023-08-01T13:01:06;21.60;99.90
2907;DHT22;1463;51.070;16.998;2023-08-01T13:03:35;21.70;99.90
2907;DHT22;1463;51.070;16.998;2023-08-01T13:06:03;21.70;99.90
2907;DHT22;1463;51.070;16.998;2023-08-01T13:08:30;21.80;99.90
2907;DHT22;1463;51.070;16.998;2023-08-01T13:10:58;21.80;99.90
2907;DHT22;1463;51.070;16.998;2023-08-01T13:13:27;21.80;99.90
2907;DHT22;1463;51.070;16.998;2023-08-01T13:15:56;21.90;99.90
2907;DHT22;1463;51.070;16.998;2023-08-01T13:18:24;22.00;99.90
2907;DHT22;1463;51.070;16.998;2023-08-01T13:20:51;22.10;99.90
2907;DHT22;1463;51.070;16.998;2023-08-01T13:23:19;22.10;99.90
2907;DHT22;1463;51.070;16.998;2023-08-01T13:25:48;22.10;99.90
2907;DHT22;1463;51.070;16.998;2023-08-01T13:28:16;22.20;99.90
2907;DHT22;1463;51.070;16.998;2023-08-01T13:30:45;22.10;99.90
2907;DHT22;1463;51.070;16.998;2023-08-01T13:33:12;22.20;99.90
2907;DHT22;1463;51.070;16.998;2023-08-01T13:35:40;22.30;99.90
2907;DHT22;1463;51.070;16.998;2023-08-01T13:38:07;22.30;99.90
2907;DHT22;1463;51.070;16.998;2023-08-01T13:40:34;22.40;99.90
2907;DHT22;1463;51.070;16.998;2023-08-01T13:43:02;22.50;99.90
2907;DHT22;1463;51.070;16.998;2023-08-01T13:45:30;22.50;99.90
2907;DHT22;1463;51.070;16.998;2023-08-01T13:48:03;22.50;99.90
2907;DHT22;1463;51.070;16.998;2023-08-01T13:50:30;22.60;99.90
2907;DHT22;1463;51.070;16.998;2023-08-01T13:52:58;22.50;99.90
2907;DHT22;1463;51.070;16.998;2023-08-01T13:55:25;22.80;99.90
2907;DHT22;1463;51.070;16.998;2023-08-01T13:57:53;22.80;99.90
2907;DHT22;1463;51.070;16.998;2023-08-01T14:00:20;22.80;99.90
2907;DHT22;1463;51.070;16.998;2023-08-01T14:02:49;22.70;99.90
2907;DHT22;1463;51.070;16.998;2023-08-01T14:05:20;22.70;99.90
2907;DHT22;1463;51.070;16.998;2023-08-01T14:07:48;22.60;99.90
2907;DHT22;1463;51.070;16.998;2023-08-01T14:10:15;22.50;99.90
2907;DHT22;1463;51.070;16.998;2023-08-01T14:12:43;22.50;99.90
2907;DHT22;1463;51.070;16.998;2023-08-01T14:15:13;22.50;99.90
2907;DHT22;1463;51.070;16.998;2023-08-01T14:17:40;22.50;99.90
2907;DHT22;1463;51.070;16.998;2023-08-01T14:20:08;22.40;99.90
2907;DHT22;1463;51.070;16.998;2023-08-01T14:22:37;22.50;99.90
2907;DHT22;1463;51.070;16.998;2023-08-01T14:25:06;22.40;99.90
2907;DHT22;1463;51.070;16.998;2023-08-01T14:27:34;22.40;99.90
2907;DHT22;1463;51.070;16.998;2023-08-01T14:30:02;22.40;99.90
2907;DHT22;1463;51.070;16.998;2023-08-01T14:32:36;22.40;99.90
2907;DHT22;1463;51.070;16.998;2023-08-01T14:35:04;22.40;99.90
2907;DHT22;1463;51.070;16.998;2023-08-01T14:37:32;22.40;99.90
2907;DHT22;1463;51.070;16.998;2023-08-01T14:40:01;22.40;99.90
2907;DHT22;1463;51.070;16.998;2023-08-01T14:42:29;22.30;99.90
2907;DHT22;1463;51.070;16.998;2023-08-01T14:44:57;22.40;99.90
2907;DHT22;1463;51.070;16.998;2023-08-01T14:47:24;22.30;99.90
2907;DHT22;1463;51.070;16.998;2023-08-01T14:49:52;22.40;99.90
2907;DHT22;1463;51.070;16.998;2023-08-01T14:52:19;22.40;99.90
2907;DHT22;1463;51.070;16.998;2023-08-01T14:54:46;22.50;99.90
2907;DHT22;1463;51.070;16.998;2023-08-01T14:57:15;22.50;99.90
2907;DHT22;1463;51.070;16.998;2023-08-01T14:59:43;22.50;99.90
2907;DHT22;1463;51.070;16.998;2023-08-01T15:02:11;22.40;99.90
2907;DHT22;1463;51.070;16.998;2023-08-01T15:04:40;22.40;99.90
2907;DHT22;1463;51.070;16.998;2023-08-01T15:07:08;22.40;99.90
2907;DHT22;1463;51.070;16.998;2023-08-01T15:09:35;22.40;99.90
2907;DHT22;1463;51.070;16.998;2023-08-01T15:12:04;22.30;99.90
2907;DHT22;1463;51.070;16.998;2023-08-01T15:14:40;22.30;99.90
2907;DHT22;1463;51.070;16.998;2023-08-01T15:17:07;22.30;99.90
2907;DHT22;1463;51.070;16.998;2023-08-01T15:19:35;22.30;99.90
2907;DHT22;1463;51.070;16.998;2023-08-01T15:22:02;22.40;99.90
2907;DHT22;1463;51.070;16.998;2023-08-01T15:24:33;22.30;99.90
2907;DHT22;1463;51.070;16.998;2023-08-01T15:27:04;22.30;99.90
2907;DHT22;1463;51.070;16.998;2023-08-01T15:29:31;22.30;99.90
2907;DHT22;1463;51.070;16.998;2023-08-01T15:32:00;22.30;99.90
2907;DHT22;1463;51.070;16.998;2023-08-01T15:34:28;22.30;99.90
2907;DHT22;1463;51.070;16.998;2023-08-01T15:36:55;22.30;99.90
2907;DHT22;1463;51.070;16.998;2023-08-01T15:39:23;22.20;99.90
2907;DHT22;1463;51.070;16.998;2023-08-01T15:41:50;22.20;99.90
2907;DHT22;1463;51.070;16.998;2023-08-01T15:44:18;22.30;99.90
2907;DHT22;1463;51.070;16.998;2023-08-01T15:46:45;22.30;99.90
2907;DHT22;1463;51.070;16.998;2023-08-01T15:49:14;22.20;99.90
2907;DHT22;1463;51.070;16.998;2023-08-01T15:51:45;22.20;99.90
2907;DHT22;1463;51.070;16.998;2023-08-01T15:54:13;22.20;99.90
2907;DHT22;1463;51.070;16.998;2023-08-01T15:56:43;22.20;99.90